Time;durP1;ratioP1;P1;durP2;ratioP2;P2;SDS_P1;SDS_P2;PMS_P1;PMS_P2;Temp;Humidity;BMP_temperature;BMP_pressure;BME280_temperature;BME280_humidity;BME280_pressure;Samples;Min_cycle;Max_cycle;Signal;HPM_P1;HPM_P2
2022/07/02 00:00:21;;;;;;;0.00;0.00;;;15.20;99.90;;;;;;5076225;28;20495;-81
2022/07/02 00:02:51;;;;;;;0.00;0.00;;;15.20;99.90;;;;;;5092751;28;20039;-81
2022/07/02 00:05:23;;;;;;;0.00;0.00;;;15.20;99.90;;;;;;5103632;28;20112;-81
2022/07/02 00:07:55;;;;;;;0.00;0.00;;;15.20;99.90;;;;;;5114030;28;20063;-82
2022/07/02 00:10:24;;;;;;;0.00;0.00;;;15.20;99.90;;;;;;5113896;28;20112;-81
2022/07/02 00:12:53;;;;;;;0.00;0.00;;;15.20;99.90;;;;;;5113427;28;20424;-81
2022/07/02 00:15:19;;;;;;;0.00;0.00;;;15.20;99.90;;;;;;5113275;28;20044;-81
2022/07/02 00:17:45;;;;;;;0.20;0.20;;;15.10;99.90;;;;;;5112941;28;20051;-81
2022/07/02 00:20:11;;;;;;;0.00;0.00;;;15.10;99.90;;;;;;5096208;28;20054;-81
2022/07/02 00:22:38;;;;;;;0.00;0.00;;;15.10;99.90;;;;;;5112688;28;20035;-81
2022/07/02 00:25:04;;;;;;;0.00;0.00;;;15.10;99.90;;;;;;5112920;28;20136;-81
2022/07/02 00:27:31;;;;;;;0.00;0.00;;;15.10;99.90;;;;;;5112970;28;20051;-82
2022/07/02 00:29:59;;;;;;;0.00;0.00;;;14.90;99.90;;;;;;5112365;28;20574;-81
2022/07/02 00:32:28;;;;;;;0.00;0.00;;;15.20;99.90;;;;;;5113183;28;20051;-81
2022/07/02 00:34:56;;;;;;;0.00;0.00;;;15.00;99.90;;;;;;5129717;28;20487;-82
2022/07/02 00:37:22;;;;;;;0.00;0.00;;;15.00;99.90;;;;;;5096059;28;20039;-81
2022/07/02 00:39:48;;;;;;;0.00;0.00;;;15.10;99.90;;;;;;5130247;28;20044;-82
2022/07/02 00:42:19;;;;;;;0.00;0.00;;;15.00;99.90;;;;;;5113025;28;20093;-82
2022/07/02 00:44:49;;;;;;;0.00;0.00;;;15.00;99.90;;;;;;5096111;28;20484;-82
2022/07/02 00:47:16;;;;;;;0.00;0.00;;;15.00;99.90;;;;;;5095943;28;20047;-81
2022/07/02 00:49:42;;;;;;;0.00;0.00;;;15.10;99.90;;;;;;5095603;28;20051;-81
2022/07/02 00:52:08;;;;;;;0.00;0.00;;;14.90;99.90;;;;;;5112631;28;20092;-81
2022/07/02 00:54:38;;;;;;;0.00;0.00;;;14.90;99.90;;;;;;5112725;28;20040;-82
2022/07/02 00:57:07;;;;;;;0.00;0.00;;;14.90;99.90;;;;;;5096527;28;20058;-81
2022/07/02 00:59:36;;;;;;;0.00;0.00;;;14.90;99.90;;;;;;5112613;28;20052;-81
2022/07/02 01:02:04;;;;;;;0.00;0.00;;;15.00;99.90;;;;;;5113060;28;20054;-81
2022/07/02 01:04:33;;;;;;;1.25;0.45;;;14.80;99.90;;;;;;5095600;28;20054;-82
2022/07/02 01:07:12;;;;;;;0.00;0.00;;;14.90;99.90;;;;;;5095572;28;20059;-81
2022/07/02 01:12:26;;;;;;;0.00;0.00;;;14.90;99.90;;;;;;5116994;28;20184;-81
2022/07/02 01:14:56;;;;;;;0.00;0.00;;;14.60;99.90;;;;;;5116621;28;20495;-81
2022/07/02 01:17:23;;;;;;;0.00;0.00;;;14.60;99.90;;;;;;5116162;28;20055;-81
2022/07/02 01:19:48;;;;;;;3.15;0.52;;;14.60;99.90;;;;;;5099229;28;20509;-81
2022/07/02 01:22:31;;;;;;;0.00;0.00;;;14.60;99.90;;;;;;5116374;28;20047;-81
2022/07/02 01:24:57;;;;;;;0.00;0.00;;;14.50;99.90;;;;;;5117089;28;20134;-81
2022/07/02 01:27:26;;;;;;;0.00;0.00;;;14.50;99.90;;;;;;5099477;28;20047;-81
2022/07/02 01:29:54;;;;;;;0.00;0.00;;;14.50;99.90;;;;;;5099519;28;20047;-81
2022/07/02 01:32:23;;;;;;;0.00;0.00;;;14.40;99.90;;;;;;5116329;28;20071;-81
2022/07/02 01:35:01;;;;;;;0.00;0.00;;;14.50;99.90;;;;;;5115945;28;20502;-81
2022/07/02 01:37:26;;;;;;;0.00;0.00;;;14.40;99.90;;;;;;5133882;27;20056;-81
2022/07/02 01:39:52;;;;;;;0.00;0.00;;;14.40;99.90;;;;;;5098899;28;20467;-81
2022/07/02 01:42:18;;;;;;;0.00;0.00;;;14.40;99.90;;;;;;5116081;28;20487;-81
2022/07/02 01:44:48;;;;;;;0.00;0.00;;;14.30;99.90;;;;;;5099109;28;20042;-80
2022/07/02 01:47:16;;;;;;;0.00;0.00;;;14.40;99.90;;;;;;5133322;27;20134;-81
2022/07/02 01:50:38;;;;;;;0.00;0.00;;;14.40;99.90;;;;;;5098837;28;20429;-81
2022/07/02 01:53:06;;;;;;;0.00;0.00;;;14.30;99.90;;;;;;5116128;28;20546;-81
2022/07/02 01:55:32;;;;;;;1.17;0.65;;;14.50;99.90;;;;;;5098776;28;20046;-81
2022/07/02 01:57:58;;;;;;;0.00;0.00;;;14.30;99.90;;;;;;5098519;28;20126;-81
2022/07/02 02:00:24;;;;;;;0.00;0.00;;;14.40;99.90;;;;;;5115647;28;20079;-81
2022/07/02 02:02:50;;;;;;;0.00;0.00;;;14.30;99.90;;;;;;5098125;28;20409;-81
2022/07/02 02:05:16;;;;;;;0.00;0.00;;;14.30;99.90;;;;;;5115051;28;20055;-80
2022/07/02 02:07:42;;;;;;;0.00;0.00;;;14.20;99.90;;;;;;5098637;28;20047;-81
2022/07/02 02:10:08;;;;;;;0.00;0.00;;;14.40;99.90;;;;;;5098511;28;20047;-80
2022/07/02 02:12:34;;;;;;;0.28;0.00;;;14.20;99.90;;;;;;5115509;28;20078;-80
2022/07/02 02:15:00;;;;;;;0.00;0.00;;;14.10;99.90;;;;;;5098242;28;20155;-80
2022/07/02 02:17:25;;;;;;;0.00;0.00;;;14.10;99.90;;;;;;5115562;28;20109;-80
2022/07/02 02:19:51;;;;;;;0.00;0.00;;;14.40;99.90;;;;;;5098006;28;20053;-80
2022/07/02 02:22:19;;;;;;;0.00;0.00;;;14.10;99.90;;;;;;5097725;28;20112;-80
2022/07/02 02:24:45;;;;;;;0.00;0.00;;;14.00;99.90;;;;;;5098254;28;20442;-81
2022/07/02 02:27:10;;;;;;;0.00;0.00;;;14.00;99.90;;;;;;5097998;28;20055;-81
2022/07/02 02:29:36;;;;;;;0.00;0.00;;;14.00;99.90;;;;;;5114951;28;20387;-81
2022/07/02 02:32:01;;;;;;;0.00;0.00;;;13.90;99.90;;;;;;5098038;28;20055;-80
2022/07/02 02:34:30;;;;;;;0.00;0.00;;;13.90;99.90;;;;;;5115031;28;20490;-80
2022/07/02 02:36:56;;;;;;;0.00;0.00;;;13.90;99.90;;;;;;5115090;28;20055;-80
2022/07/02 02:39:21;;;;;;;0.00;0.00;;;13.80;99.90;;;;;;5115014;28;20493;-80
2022/07/02 02:41:47;;;;;;;0.00;0.00;;;13.80;99.90;;;;;;5097493;28;20135;-80
2022/07/02 02:44:16;;;;;;;0.00;0.00;;;13.70;99.90;;;;;;5114663;28;20035;-80
2022/07/02 02:46:41;;;;;;;2.17;0.70;;;13.70;99.90;;;;;;5131625;27;20395;-80
2022/07/02 02:49:10;;;;;;;0.00;0.00;;;13.70;99.90;;;;;;5114972;28;20052;-80
2022/07/02 02:51:35;;;;;;;0.00;0.00;;;13.70;99.90;;;;;;5114474;28;20487;-80
2022/07/02 02:54:04;;;;;;;0.00;0.00;;;13.60;99.90;;;;;;5098083;28;20110;-80
2022/07/02 02:56:30;;;;;;;0.00;0.00;;;13.60;99.90;;;;;;5114259;28;20063;-80
2022/07/02 02:58:56;;;;;;;0.00;0.00;;;13.60;99.90;;;;;;5114372;28;20048;-80
2022/07/02 03:01:21;;;;;;;0.00;0.00;;;13.60;99.90;;;;;;5097640;28;20043;-80
2022/07/02 03:03:47;;;;;;;0.00;0.00;;;13.60;99.90;;;;;;5114530;28;20123;-80
2022/07/02 03:06:12;;;;;;;0.00;0.00;;;13.60;99.90;;;;;;5097160;28;20189;-80
2022/07/02 03:08:38;;;;;;;0.00;0.00;;;13.60;99.90;;;;;;5131591;27;20075;-80
2022/07/02 03:11:07;;;;;;;0.00;0.00;;;13.50;99.90;;;;;;5096095;28;20139;-80
2022/07/02 03:13:32;;;;;;;0.00;0.00;;;13.50;99.90;;;;;;5097721;28;20074;-80
2022/07/02 03:15:58;;;;;;;0.00;0.00;;;13.60;99.90;;;;;;5097317;28;20043;-80
2022/07/02 03:18:30;;;;;;;0.00;0.00;;;13.50;99.90;;;;;;5131341;27;20052;-80
2022/07/02 03:20:56;;;;;;;0.00;0.00;;;13.50;99.90;;;;;;5096679;28;20059;-80
2022/07/02 03:23:21;;;;;;;0.00;0.00;;;13.50;99.90;;;;;;5131043;27;20047;-80
2022/07/02 03:25:47;;;;;;;0.00;0.00;;;13.50;99.90;;;;;;5130991;27;20086;-80
2022/07/02 03:28:12;;;;;;;0.00;0.00;;;13.50;99.90;;;;;;5096641;28;20079;-80
2022/07/02 03:30:38;;;;;;;0.00;0.00;;;13.50;99.90;;;;;;5131202;27;20043;-80
2022/07/02 03:33:04;;;;;;;0.13;0.10;;;13.50;99.90;;;;;;5096672;28;20475;-80
2022/07/02 03:35:29;;;;;;;0.00;0.00;;;13.50;99.90;;;;;;5113975;28;20051;-80
2022/07/02 03:37:55;;;;;;;0.00;0.00;;;13.50;99.90;;;;;;5130674;27;20405;-80
2022/07/02 03:40:24;;;;;;;0.00;0.00;;;13.40;99.90;;;;;;5114110;28;20051;-80
2022/07/02 03:42:50;;;;;;;0.00;0.00;;;13.40;99.90;;;;;;5113856;28;20134;-80
2022/07/02 03:45:15;;;;;;;0.00;0.00;;;13.50;99.90;;;;;;5113768;28;20131;-80
2022/07/02 03:47:41;;;;;;;0.00;0.00;;;13.50;99.90;;;;;;5113908;28;20044;-80
2022/07/02 03:50:07;;;;;;;0.00;0.00;;;13.50;99.90;;;;;;5113770;28;20546;-80
2022/07/02 03:52:33;;;;;;;0.00;0.00;;;13.50;99.90;;;;;;5113574;28;20090;-80
2022/07/02 03:54:58;;;;;;;0.00;0.00;;;13.50;99.90;;;;;;5113789;28;20086;-80
2022/07/02 03:57:27;;;;;;;0.00;0.00;;;13.60;99.90;;;;;;5114005;28;20130;-80
2022/07/02 03:59:55;;;;;;;0.00;0.00;;;13.50;99.90;;;;;;5113245;28;20043;-80
2022/07/02 04:02:22;;;;;;;0.00;0.00;;;13.60;99.90;;;;;;5113499;28;20399;-80
2022/07/02 04:04:48;;;;;;;1.10;0.60;;;13.60;99.90;;;;;;5112938;28;20056;-80
2022/07/02 04:07:14;;;;;;;0.10;0.00;;;13.60;99.90;;;;;;5113302;28;20059;-80
2022/07/02 04:09:45;;;;;;;0.45;0.20;;;13.60;99.90;;;;;;5113375;28;20050;-80
2022/07/02 04:12:11;;;;;;;0.00;0.00;;;13.70;99.90;;;;;;5113408;28;20043;-80
2022/07/02 04:14:39;;;;;;;0.08;0.00;;;13.70;99.90;;;;;;5113476;28;20096;-80
2022/07/02 04:17:05;;;;;;;0.00;0.00;;;13.70;99.90;;;;;;5096362;28;20039;-80
2022/07/02 04:19:31;;;;;;;0.08;0.00;;;13.70;99.90;;;;;;5113075;28;20044;-80
2022/07/02 04:22:01;;;;;;;0.00;0.00;;;13.80;99.90;;;;;;5095955;28;20086;-80
2022/07/02 04:24:30;;;;;;;0.00;0.00;;;13.80;99.90;;;;;;5113015;28;20047;-80
2022/07/02 04:26:56;;;;;;;0.00;0.00;;;13.80;99.90;;;;;;5112731;28;20046;-80
2022/07/02 04:29:24;;;;;;;0.00;0.00;;;13.80;99.90;;;;;;5096639;28;20043;-80
2022/07/02 04:31:50;;;;;;;0.00;0.00;;;13.90;99.90;;;;;;5096082;28;20407;-80
2022/07/02 04:34:15;;;;;;;0.00;0.00;;;13.90;99.90;;;;;;5095854;28;20036;-80
2022/07/02 04:36:41;;;;;;;0.05;0.05;;;13.90;99.90;;;;;;5112687;28;20100;-80
2022/07/02 04:39:07;;;;;;;0.00;0.00;;;13.90;99.90;;;;;;5129925;28;20039;-81
2022/07/02 04:41:33;;;;;;;0.10;0.10;;;13.90;99.90;;;;;;5113010;28;20490;-81
2022/07/02 04:43:59;;;;;;;0.00;0.00;;;14.00;99.90;;;;;;5130799;27;20075;-80
2022/07/02 04:46:25;;;;;;;0.50;0.08;;;14.00;99.90;;;;;;5116812;28;20039;-80
2022/07/02 04:48:51;;;;;;;0.00;0.00;;;14.00;99.90;;;;;;5116797;28;20131;-81
2022/07/02 04:51:17;;;;;;;0.00;0.00;;;14.10;99.90;;;;;;5099627;28;20043;-81
2022/07/02 04:53:44;;;;;;;0.10;0.10;;;14.10;99.90;;;;;;5133980;27;20509;-81
2022/07/02 04:56:10;;;;;;;0.00;0.00;;;14.20;99.90;;;;;;5116981;28;20092;-80
2022/07/02 04:58:35;;;;;;;0.00;0.00;;;14.30;99.90;;;;;;5099640;28;20078;-81
2022/07/02 05:01:01;;;;;;;0.75;0.35;;;14.40;99.90;;;;;;5134014;27;20040;-81
2022/07/02 05:03:27;;;;;;;0.00;0.00;;;14.30;99.90;;;;;;5133856;27;20523;-81
2022/07/02 05:05:53;;;;;;;0.52;0.30;;;14.40;99.90;;;;;;5112543;28;20060;-81
2022/07/02 05:08:24;;;;;;;0.00;0.00;;;14.40;99.90;;;;;;5096133;28;20046;-81
2022/07/02 05:10:50;;;;;;;0.00;0.00;;;14.50;99.90;;;;;;5096758;28;20399;-81
2022/07/02 05:13:15;;;;;;;0.00;0.00;;;14.60;99.90;;;;;;5079164;28;20044;-81
2022/07/02 05:15:41;;;;;;;0.08;0.00;;;14.60;99.90;;;;;;5095949;28;20135;-81
2022/07/02 05:18:07;;;;;;;0.60;0.45;;;14.60;99.90;;;;;;5079147;28;20054;-81
2022/07/02 05:20:33;;;;;;;0.00;0.00;;;14.60;99.90;;;;;;5096176;28;20040;-81
2022/07/02 05:22:58;;;;;;;0.00;0.00;;;14.60;99.90;;;;;;5078700;28;20040;-81
2022/07/02 05:25:24;;;;;;;0.00;0.00;;;14.70;99.90;;;;;;5078821;28;20052;-81
2022/07/02 05:27:50;;;;;;;0.08;0.08;;;14.70;99.90;;;;;;5078738;28;20052;-81
2022/07/02 05:30:15;;;;;;;0.00;0.00;;;14.70;99.90;;;;;;5096026;28;20040;-81
2022/07/02 05:32:41;;;;;;;0.10;0.10;;;14.70;99.90;;;;;;5096812;28;20075;-81
2022/07/02 05:35:07;;;;;;;0.00;0.00;;;14.80;99.90;;;;;;5096166;28;20064;-81
2022/07/02 05:37:33;;;;;;;0.00;0.00;;;14.80;99.90;;;;;;5095786;28;20054;-81
2022/07/02 05:39:58;;;;;;;0.10;0.10;;;14.90;99.90;;;;;;5095394;28;20036;-81
2022/07/02 05:42:24;;;;;;;0.00;0.00;;;14.90;99.90;;;;;;5095764;28;20368;-81
2022/07/02 05:44:50;;;;;;;0.20;0.10;;;15.00;99.90;;;;;;5078214;28;20047;-81
2022/07/02 05:47:15;;;;;;;0.00;0.00;;;15.20;99.90;;;;;;5095630;28;20100;-81
2022/07/02 05:49:41;;;;;;;0.00;0.00;;;15.70;99.90;;;;;;5078553;28;20075;-81
2022/07/02 05:52:07;;;;;;;0.00;0.00;;;16.50;99.90;;;;;;5095574;28;20090;-81
2022/07/02 05:54:33;;;;;;;0.00;0.00;;;16.80;99.90;;;;;;5095583;28;20521;-81
2022/07/02 05:57:01;;;;;;;0.00;0.00;;;16.80;99.90;;;;;;5077783;28;20048;-81
2022/07/02 05:59:27;;;;;;;0.00;0.00;;;16.70;99.90;;;;;;5095311;28;20048;-81
2022/07/02 06:01:53;;;;;;;0.00;0.00;;;16.50;99.90;;;;;;5095024;28;20051;-80
2022/07/02 06:04:18;;;;;;;0.00;0.00;;;16.40;99.90;;;;;;5099311;27;20073;-81
2022/07/02 06:09:33;;;;;;;0.00;0.00;;;16.20;99.90;;;;;;5077377;28;20074;-81
2022/07/02 06:11:58;;;;;;;0.00;0.00;;;16.20;99.90;;;;;;5077313;28;20048;-81
2022/07/02 06:14:24;;;;;;;0.20;0.00;;;16.10;99.90;;;;;;5077019;28;20534;-80
2022/07/02 06:16:49;;;;;;;0.00;0.00;;;16.20;99.90;;;;;;5076809;28;20089;-81
2022/07/02 06:19:15;;;;;;;0.00;0.00;;;16.20;99.90;;;;;;5077094;28;20504;-81
2022/07/02 06:21:41;;;;;;;0.00;0.00;;;16.30;99.90;;;;;;5076990;28;20052;-81
2022/07/02 06:24:10;;;;;;;0.00;0.00;;;16.50;99.90;;;;;;5076967;28;20048;-81
2022/07/02 06:26:36;;;;;;;0.00;0.00;;;16.60;99.90;;;;;;5059912;28;20473;-80
2022/07/02 06:29:08;;;;;;;0.00;0.00;;;16.60;99.90;;;;;;5060572;28;20040;-81
2022/07/02 06:31:33;;;;;;;0.00;0.00;;;16.70;99.90;;;;;;5076851;28;20181;-80
2022/07/02 06:33:59;;;;;;;0.05;0.00;;;16.70;99.90;;;;;;5076713;28;20143;-80
2022/07/02 06:36:25;;;;;;;0.00;0.00;;;16.70;99.90;;;;;;5060048;28;20151;-81
2022/07/02 06:38:51;;;;;;;0.00;0.00;;;16.80;99.90;;;;;;5076714;28;20040;-80
2022/07/02 06:44:04;;;;;;;0.00;0.00;;;16.80;99.90;;;;;;5076923;28;20087;-80
2022/07/02 06:46:29;;;;;;;0.00;0.00;;;16.90;99.90;;;;;;5079828;27;20143;-80
2022/07/02 06:48:55;;;;;;;0.55;0.20;;;16.90;99.90;;;;;;5101400;27;20086;-80
2022/07/02 06:51:21;;;;;;;0.00;0.00;;;17.00;99.90;;;;;;5100770;27;20058;-80
2022/07/02 06:53:47;;;;;;;0.00;0.00;;;17.00;99.90;;;;;;5100771;27;20054;-81
2022/07/02 06:56:13;;;;;;;0.00;0.00;;;17.20;99.90;;;;;;5118241;27;20043;-80
2022/07/02 06:58:38;;;;;;;0.00;0.00;;;17.10;99.90;;;;;;5117966;27;20043;-80
2022/07/02 07:01:04;;;;;;;0.00;0.00;;;17.20;99.90;;;;;;5118265;27;20043;-80
2022/07/02 07:03:29;;;;;;;0.00;0.00;;;17.20;99.90;;;;;;5118380;27;20047;-80
2022/07/02 07:05:55;;;;;;;0.00;0.00;;;17.30;99.90;;;;;;5097330;28;20160;-80
2022/07/02 07:08:21;;;;;;;0.00;0.00;;;17.30;99.90;;;;;;5113817;28;20054;-80
2022/07/02 07:10:47;;;;;;;0.00;0.00;;;17.40;99.90;;;;;;5115232;28;20046;-80
2022/07/02 07:13:12;;;;;;;0.00;0.00;;;17.50;99.90;;;;;;5131360;27;20498;-80
2022/07/02 07:15:40;;;;;;;0.00;0.00;;;17.70;99.90;;;;;;5114530;28;20364;-79
2022/07/02 07:18:06;;;;;;;0.00;0.00;;;17.70;99.90;;;;;;5131761;27;20463;-80
2022/07/02 07:20:32;;;;;;;0.00;0.00;;;17.70;99.90;;;;;;5097118;28;20122;-80
2022/07/02 07:23:01;;;;;;;0.00;0.00;;;17.70;99.90;;;;;;5113798;28;20078;-80
2022/07/02 07:25:28;;;;;;;0.00;0.00;;;17.80;99.90;;;;;;5097332;28;20083;-79
2022/07/02 07:27:56;;;;;;;0.10;0.10;;;18.00;99.90;;;;;;5114246;28;20486;-80
2022/07/02 07:30:22;;;;;;;0.00;0.00;;;18.10;99.90;;;;;;5097121;28;20043;-80
2022/07/02 07:32:48;;;;;;;0.00;0.00;;;18.30;99.90;;;;;;5131317;27;20505;-80
2022/07/02 07:35:13;;;;;;;0.00;0.00;;;18.30;99.90;;;;;;5114209;28;20049;-80
2022/07/02 07:37:39;;;;;;;0.00;0.00;;;18.50;99.90;;;;;;5096997;28;20100;-79
2022/07/02 07:40:07;;;;;;;0.00;0.00;;;18.60;99.90;;;;;;5096422;28;20051;-80
2022/07/02 07:42:33;;;;;;;0.10;0.10;;;18.60;99.30;;;;;;5113972;28;20057;-79
2022/07/02 07:44:59;;;;;;;0.05;0.03;;;18.70;99.90;;;;;;5096739;28;20051;-80
2022/07/02 07:47:25;;;;;;;0.00;0.00;;;18.80;99.90;;;;;;5113686;28;20054;-79
2022/07/02 07:49:50;;;;;;;0.00;0.00;;;19.00;99.80;;;;;;5113757;28;20520;-80
2022/07/02 07:52:16;;;;;;;0.00;0.00;;;19.10;99.80;;;;;;5113673;28;20043;-79
2022/07/02 07:54:42;;;;;;;0.00;0.00;;;19.20;99.50;;;;;;5113557;28;20387;-79
2022/07/02 07:57:07;;;;;;;0.00;0.00;;;19.20;96.90;;;;;;5096823;28;20040;-79
2022/07/02 07:59:33;;;;;;;0.00;0.00;;;19.30;98.00;;;;;;5113663;28;20039;-79
2022/07/02 08:01:59;;;;;;;0.00;0.00;;;19.40;98.40;;;;;;5113507;28;20055;-79
2022/07/02 08:04:29;;;;;;;0.00;0.00;;;19.50;97.10;;;;;;5114366;27;20044;-79
2022/07/02 08:06:55;;;;;;;0.10;0.10;;;19.50;98.70;;;;;;5116636;27;20058;-79
2022/07/02 08:09:20;;;;;;;0.00;0.00;;;19.60;98.40;;;;;;5099449;27;20415;-79
2022/07/02 08:11:46;;;;;;;0.00;0.00;;;19.70;98.00;;;;;;5100313;27;20512;-79
2022/07/02 08:14:11;;;;;;;0.03;0.03;;;19.80;97.70;;;;;;5116573;27;20122;-79
2022/07/02 08:16:37;;;;;;;0.00;0.00;;;19.90;97.70;;;;;;5098934;27;20418;-80
2022/07/02 08:19:03;;;;;;;0.00;0.00;;;19.90;97.80;;;;;;5115995;28;20054;-80
2022/07/02 08:21:28;;;;;;;6.93;0.43;;;20.00;97.90;;;;;;5116647;27;20412;-79
2022/07/02 08:23:54;;;;;;;0.00;0.00;;;20.10;97.90;;;;;;5133801;27;20578;-79
2022/07/02 08:26:20;;;;;;;0.30;0.30;;;20.20;96.90;;;;;;5133587;28;20039;-80
2022/07/02 08:28:45;;;;;;;0.00;0.00;;;20.40;95.30;;;;;;5116793;28;20046;-80
2022/07/02 08:31:11;;;;;;;0.00;0.00;;;20.40;94.80;;;;;;5133939;28;20035;-80
2022/07/02 08:33:36;;;;;;;0.00;0.00;;;20.50;93.40;;;;;;5099924;28;20051;-79
2022/07/02 08:36:02;;;;;;;0.00;0.00;;;20.50;93.40;;;;;;5133819;28;20039;-79
2022/07/02 08:38:28;;;;;;;0.00;0.00;;;20.60;92.50;;;;;;5116869;28;20371;-79
2022/07/02 08:40:54;;;;;;;0.00;0.00;;;20.70;93.10;;;;;;5100257;28;20089;-79
2022/07/02 08:43:25;;;;;;;0.00;0.00;;;20.70;93.70;;;;;;5116238;28;20137;-79
2022/07/02 08:45:51;;;;;;;0.00;0.00;;;20.80;93.30;;;;;;5099596;28;20046;-79
2022/07/02 08:48:18;;;;;;;0.00;0.00;;;20.80;92.40;;;;;;5133676;28;20131;-79
2022/07/02 08:50:46;;;;;;;0.00;0.00;;;20.80;93.30;;;;;;5116540;28;20055;-79
2022/07/02 08:53:12;;;;;;;0.15;0.00;;;20.90;90.80;;;;;;5134004;28;20046;-79
2022/07/02 08:55:38;;;;;;;0.20;0.20;;;21.00;92.90;;;;;;5099447;28;20100;-79
2022/07/02 08:58:05;;;;;;;0.00;0.00;;;21.10;91.60;;;;;;5099501;28;20054;-79
2022/07/02 09:00:31;;;;;;;0.00;0.00;;;21.10;92.30;;;;;;5116745;28;20047;-79
2022/07/02 09:02:58;;;;;;;0.00;0.00;;;21.20;93.70;;;;;;5116346;28;20035;-79
2022/07/02 09:05:29;;;;;;;0.00;0.00;;;21.40;92.70;;;;;;5098694;28;20051;-79
2022/07/02 09:07:56;;;;;;;0.00;0.00;;;21.40;92.90;;;;;;5099822;28;20081;-79
2022/07/02 09:10:23;;;;;;;0.03;0.03;;;21.40;91.50;;;;;;5116637;28;20054;-79
2022/07/02 09:12:50;;;;;;;0.00;0.00;;;21.50;91.30;;;;;;5099050;28;20059;-79
2022/07/02 09:15:16;;;;;;;0.00;0.00;;;21.50;90.90;;;;;;5116207;28;20057;-80
2022/07/02 09:17:43;;;;;;;0.00;0.00;;;21.50;92.30;;;;;;5116015;28;20051;-79
2022/07/02 09:20:10;;;;;;;0.10;0.00;;;21.70;92.20;;;;;;5133603;28;20087;-79
2022/07/02 09:22:43;;;;;;;0.00;0.00;;;21.80;90.80;;;;;;5115743;28;20047;-80
2022/07/02 09:25:16;;;;;;;0.00;0.00;;;21.90;91.90;;;;;;5116680;28;20497;-80
2022/07/02 09:27:43;;;;;;;0.00;0.00;;;22.00;92.30;;;;;;5133378;28;20043;-80
2022/07/02 09:30:11;;;;;;;0.00;0.00;;;22.10;91.10;;;;;;5117185;27;20050;-80
2022/07/02 09:32:42;;;;;;;0.00;0.00;;;22.20;90.50;;;;;;5120643;27;20039;-80
2022/07/02 09:35:19;;;;;;;1.75;0.70;;;22.20;90.90;;;;;;5119995;27;20494;-80
2022/07/02 09:37:45;;;;;;;0.00;0.00;;;22.20;91.60;;;;;;5137287;27;20129;-80
2022/07/02 09:40:11;;;;;;;0.45;0.10;;;22.10;90.60;;;;;;5137158;27;20043;-80
2022/07/02 09:42:37;;;;;;;0.00;0.00;;;22.10;91.10;;;;;;5136647;27;20092;-80
2022/07/02 09:45:05;;;;;;;0.00;0.00;;;22.20;90.00;;;;;;5119675;27;20047;-80
2022/07/02 09:47:34;;;;;;;0.00;0.00;;;22.20;90.10;;;;;;5102683;27;20054;-80
2022/07/02 09:50:09;;;;;;;0.00;0.00;;;22.40;91.00;;;;;;5101985;27;20055;-80
2022/07/02 09:52:36;;;;;;;0.00;0.00;;;22.70;87.80;;;;;;5136917;27;20050;-80
2022/07/02 09:55:03;;;;;;;0.00;0.00;;;22.90;88.60;;;;;;5136639;27;20047;-80
2022/07/02 09:57:29;;;;;;;0.08;0.08;;;23.00;90.60;;;;;;5101956;27;20039;-80
2022/07/02 10:00:04;;;;;;;0.00;0.00;;;23.20;86.40;;;;;;5136523;27;20107;-80
2022/07/02 10:02:30;;;;;;;0.00;0.00;;;23.40;89.10;;;;;;5119042;27;20043;-80
2022/07/02 10:04:58;;;;;;;0.00;0.00;;;23.50;84.90;;;;;;5136238;27;20135;-80
2022/07/02 10:07:24;;;;;;;0.00;0.00;;;23.40;82.60;;;;;;5119401;27;20043;-80
2022/07/02 10:09:51;;;;;;;0.00;0.00;;;23.50;83.70;;;;;;5136288;27;20491;-80
2022/07/02 10:12:19;;;;;;;0.00;0.00;;;23.30;84.00;;;;;;5136099;27;20043;-80
2022/07/02 10:14:46;;;;;;;0.00;0.00;;;23.10;85.10;;;;;;5119046;27;20047;-80
2022/07/02 10:17:14;;;;;;;0.00;0.00;;;23.10;85.60;;;;;;5118689;27;20054;-80
2022/07/02 10:19:40;;;;;;;0.00;0.00;;;22.90;83.50;;;;;;5101965;27;20139;-80
2022/07/02 10:22:06;;;;;;;0.00;0.00;;;22.70;83.60;;;;;;5118827;27;20142;-80
2022/07/02 10:24:33;;;;;;;0.00;0.00;;;22.40;84.60;;;;;;5118814;27;20039;-80
2022/07/02 10:27:03;;;;;;;0.00;0.00;;;22.40;82.30;;;;;;5135766;27;20035;-80
2022/07/02 10:29:29;;;;;;;0.00;0.00;;;22.40;85.80;;;;;;5119076;27;20054;-80
2022/07/02 10:32:21;;;;;;;0.00;0.00;;;22.20;84.70;;;;;;5101435;27;20485;-80
2022/07/02 10:35:09;;;;;;;0.00;0.00;;;22.10;83.60;;;;;;5135986;27;20050;-80
2022/07/02 10:37:39;;;;;;;0.00;0.00;;;22.20;86.50;;;;;;5101724;27;20058;-80
2022/07/02 10:40:06;;;;;;;0.00;0.00;;;22.30;86.40;;;;;;5118590;27;20047;-80
2022/07/02 10:42:45;;;;;;;0.00;0.00;;;22.40;89.20;;;;;;5117660;27;20068;-80
2022/07/02 10:45:18;;;;;;;0.00;0.00;;;22.40;87.10;;;;;;5118405;27;20046;-80
2022/07/02 10:47:59;;;;;;;0.00;0.00;;;22.40;89.20;;;;;;5118517;27;20051;-80
2022/07/02 10:50:37;;;;;;;0.00;0.00;;;22.60;91.10;;;;;;5135816;27;20043;-80
2022/07/02 10:53:20;;;;;;;0.10;0.00;;;23.00;87.90;;;;;;5101519;27;20406;-80
2022/07/02 10:55:59;;;;;;;0.00;0.00;;;22.90;85.50;;;;;;5118317;27;20047;-80
2022/07/02 10:58:34;;;;;;;0.00;0.00;;;22.70;85.20;;;;;;5135253;27;20549;-80
2022/07/02 11:01:17;;;;;;;0.00;0.00;;;22.40;81.30;;;;;;5118417;27;20070;-80
2022/07/02 11:03:56;;;;;;;1.95;0.10;;;22.10;85.70;;;;;;5101309;27;20047;-80
2022/07/02 11:06:27;;;;;;;0.00;0.00;;;21.90;87.50;;;;;;5117700;27;20051;-80
2022/07/02 11:08:56;;;;;;;0.00;0.00;;;21.70;89.10;;;;;;5101499;27;20059;-80
2022/07/02 11:11:37;;;;;;;0.28;0.00;;;21.60;90.40;;;;;;5101110;27;20065;-80
2022/07/02 11:14:07;;;;;;;0.00;0.00;;;21.60;91.60;;;;;;5135103;27;20111;-80
2022/07/02 11:16:53;;;;;;;0.00;0.00;;;21.60;91.20;;;;;;5118338;27;20241;-80
2022/07/02 11:19:27;;;;;;;0.00;0.00;;;21.80;91.70;;;;;;5100973;27;20039;-80
2022/07/02 11:21:55;;;;;;;;;;;22.30;93.40;;;;;;5135102;27;20509;-80
2022/07/02 11:24:23;;;;;;;0.00;0.00;;;22.80;92.30;;;;;;5117680;27;19919;-80
2022/07/02 11:26:49;;;;;;;0.00;0.00;;;23.30;92.10;;;;;;5099779;27;20059;-80
2022/07/02 11:29:18;;;;;;;0.00;0.00;;;23.30;90.50;;;;;;5134727;27;20391;-80
2022/07/02 11:31:49;;;;;;;0.00;0.00;;;23.10;89.10;;;;;;5100156;27;20059;-80
2022/07/02 11:34:20;;;;;;;0.05;0.00;;;23.30;89.20;;;;;;5100050;27;20058;-80
2022/07/02 11:36:45;;;;;;;0.00;0.00;;;23.60;87.60;;;;;;5134983;27;20039;-80
2022/07/02 11:39:13;;;;;;;0.00;0.00;;;23.60;82.80;;;;;;5117364;27;20498;-80
2022/07/02 11:41:39;;;;;;;0.00;0.00;;;23.50;81.50;;;;;;5117731;27;20398;-80
2022/07/02 11:44:31;;;;;;;0.00;0.00;;;23.30;82.60;;;;;;5117444;27;20402;-80
2022/07/02 11:47:00;;;;;;;0.00;0.00;;;23.20;86.50;;;;;;5112391;27;20051;-80
2022/07/02 11:49:37;;;;;;;0.00;0.00;;;23.30;83.90;;;;;;5117351;27;20445;-80
2022/07/02 11:52:05;;;;;;;0.40;0.28;;;23.60;86.30;;;;;;5116839;27;20486;-81
2022/07/02 11:54:31;;;;;;;2.45;0.30;;;23.60;82.90;;;;;;5116894;27;20075;-81
2022/07/02 11:56:59;;;;;;;0.00;0.00;;;23.50;79.40;;;;;;5100096;27;20469;-81
2022/07/02 11:59:25;;;;;;;0.00;0.00;;;23.20;78.90;;;;;;5117117;27;20470;-81
2022/07/02 12:01:53;;;;;;;0.00;0.00;;;23.20;83.40;;;;;;5117092;27;20110;-81
2022/07/02 12:04:22;;;;;;;0.00;0.00;;;23.40;81.20;;;;;;5116670;27;20368;-81
2022/07/02 12:06:52;;;;;;;0.00;0.00;;;23.40;82.10;;;;;;5134635;27;20444;-81
2022/07/02 12:09:22;;;;;;;0.00;0.00;;;23.60;81.00;;;;;;5116648;27;20039;-81
2022/07/02 12:11:48;;;;;;;0.00;0.00;;;23.60;85.00;;;;;;5099740;27;20134;-81
2022/07/02 12:14:15;;;;;;;0.00;0.00;;;23.90;85.10;;;;;;5116800;27;20054;-81
2022/07/02 12:16:44;;;;;;;0.00;0.00;;;24.30;85.70;;;;;;5099488;28;20097;-81
2022/07/02 12:19:12;;;;;;;0.10;0.00;;;24.60;82.20;;;;;;5134203;27;20047;-81
2022/07/02 12:21:46;;;;;;;0.00;0.00;;;24.50;80.50;;;;;;5133822;27;20113;-81
2022/07/02 12:24:31;;;;;;;0.00;0.00;;;24.30;81.20;;;;;;5133784;27;20050;-81
2022/07/02 12:27:15;;;;;;;0.00;0.00;;;24.10;80.40;;;;;;5133530;27;20122;-81
2022/07/02 12:29:53;;;;;;;0.00;0.00;;;23.80;78.50;;;;;;5116994;28;20142;-81
2022/07/02 12:32:33;;;;;;;0.00;0.00;;;23.70;82.40;;;;;;5116824;28;20156;-81
2022/07/02 12:35:02;;;;;;;0.00;0.00;;;23.70;81.60;;;;;;5116515;28;20077;-81
2022/07/02 12:37:33;;;;;;;0.00;0.00;;;23.80;80.60;;;;;;5116350;28;20088;-81
2022/07/02 12:40:10;;;;;;;0.00;0.00;;;23.90;77.70;;;;;;5116849;28;20070;-80
2022/07/02 12:42:46;;;;;;;0.00;0.00;;;23.80;76.90;;;;;;5134309;28;20330;-81
2022/07/02 12:45:31;;;;;;;0.13;0.13;;;23.60;79.20;;;;;;5099409;28;20487;-81
2022/07/02 12:48:06;;;;;;;0.00;0.00;;;23.60;84.90;;;;;;5133087;28;20089;-81
2022/07/02 12:50:39;;;;;;;0.00;0.00;;;23.60;83.00;;;;;;5116466;28;20068;-81
2022/07/02 12:53:08;;;;;;;0.00;0.00;;;23.70;80.60;;;;;;5099082;28;20063;-81
2022/07/02 12:55:39;;;;;;;0.00;0.00;;;23.70;82.30;;;;;;5116403;28;20043;-80
2022/07/02 12:58:09;;;;;;;0.00;0.00;;;23.60;77.50;;;;;;5133269;28;20043;-81
2022/07/02 13:00:36;;;;;;;0.00;0.00;;;23.60;80.20;;;;;;5133130;28;20398;-81